KBWG/BWG METAR and TAF weather

Enter ICAO airport designator
Station Type Date Time Source
KBWG METAR 2018/10/19 14:53 UTC NOAA

KBWG 191453Z AUTO 23003KT 10SM CLR 13/07 A3027 RMK AO2 SLP251 T01280067 56009


Station Type Date Time Source
KBWG Decoded METAR 2018/10/19 14:53 UTC NOAA

BOWLING GREEN-WARREN CO RGNL, KY, United States (KBWG) 36-58N 086-25W 161M
Oct 19, 2018 - 10:53 AM EDT / 2018.10.19 1453 UTC
Wind: from the SW (230 degrees) at 3 MPH (3 KT):0
Visibility: 10 mile(s):0
Sky conditions: clear
Temperature: 55.0 F (12.8 C)
Dew Point: 44.1 F (6.7 C)
Relative Humidity: 66%
Pressure (altimeter): 30.27 in. Hg (1025 hPa)
Pressure tendency: 0.03 inches (0.9 hPa) lower than three hours ago
ob: KBWG 191453Z AUTO 23003KT 10SM CLR 13/07 A3027 RMK AO2 SLP251 T01280067 56009
cycle: 15

Station Type Date Time Source
KBWG TAF 2018/10/19 12:22 UTC NOAA

TAF KBWG 191120Z 1912/2012 VRB03KT P6SM FEW250
FM191600 22009KT P6SM BKN100
FM192300 24007KT 6SM -RA BR OVC040
FM200300 26008KT 4SM -RA BR OVC015
FM200700 27007KT P6SM OVC008


Example: see airport list